sensor_id;sensor_type;location;lat;lon;timestamp;P1;durP1;ratioP1;P2;durP2;ratioP2
25922;SDS011;13725;51.170;4.442;2023-05-07T00:00:00;15.98;;;10.55;;
25922;SDS011;13725;51.170;4.442;2023-05-07T00:02:26;16.90;;;10.10;;
25922;SDS011;13725;51.170;4.442;2023-05-07T00:04:52;19.98;;;10.13;;
25922;SDS011;13725;51.170;4.442;2023-05-07T00:07:18;15.80;;;9.73;;
25922;SDS011;13725;51.170;4.442;2023-05-07T00:09:43;14.45;;;10.60;;
25922;SDS011;13725;51.170;4.442;2023-05-07T00:12:09;17.63;;;10.50;;
25922;SDS011;13725;51.170;4.442;2023-05-07T00:14:35;15.30;;;10.02;;
25922;SDS011;13725;51.170;4.442;2023-05-07T00:17:01;15.10;;;9.85;;
25922;SDS011;13725;51.170;4.442;2023-05-07T00:19:27;15.23;;;10.55;;
25922;SDS011;13725;51.170;4.442;2023-05-07T00:21:53;13.55;;;9.32;;
25922;SDS011;13725;51.170;4.442;2023-05-07T00:24:19;18.15;;;10.43;;
25922;SDS011;13725;51.170;4.442;2023-05-07T00:26:45;17.08;;;10.52;;
25922;SDS011;13725;51.170;4.442;2023-05-07T00:29:11;15.85;;;10.45;;
25922;SDS011;13725;51.170;4.442;2023-05-07T00:31:36;16.20;;;10.02;;
25922;SDS011;13725;51.170;4.442;2023-05-07T00:34:02;19.20;;;10.18;;
25922;SDS011;13725;51.170;4.442;2023-05-07T00:36:28;22.63;;;10.82;;
25922;SDS011;13725;51.170;4.442;2023-05-07T00:38:54;15.77;;;9.80;;
25922;SDS011;13725;51.170;4.442;2023-05-07T00:41:22;17.13;;;10.90;;
25922;SDS011;13725;51.170;4.442;2023-05-07T00:43:47;17.55;;;10.88;;
25922;SDS011;13725;51.170;4.442;2023-05-07T00:46:13;16.45;;;10.48;;
25922;SDS011;13725;51.170;4.442;2023-05-07T00:48:41;18.65;;;11.38;;
25922;SDS011;13725;51.170;4.442;2023-05-07T00:51:07;15.57;;;10.27;;
25922;SDS011;13725;51.170;4.442;2023-05-07T00:53:32;15.95;;;9.77;;
25922;SDS011;13725;51.170;4.442;2023-05-07T00:55:59;14.98;;;10.25;;
25922;SDS011;13725;51.170;4.442;2023-05-07T00:58:25;16.45;;;9.50;;
25922;SDS011;13725;51.170;4.442;2023-05-07T01:00:52;14.93;;;10.27;;
25922;SDS011;13725;51.170;4.442;2023-05-07T01:03:17;16.80;;;10.35;;
25922;SDS011;13725;51.170;4.442;2023-05-07T01:05:43;18.83;;;10.38;;
25922;SDS011;13725;51.170;4.442;2023-05-07T01:08:11;16.15;;;10.45;;
25922;SDS011;13725;51.170;4.442;2023-05-07T01:10:37;14.32;;;10.30;;
25922;SDS011;13725;51.170;4.442;2023-05-07T01:13:08;15.77;;;9.90;;
25922;SDS011;13725;51.170;4.442;2023-05-07T01:15:36;17.30;;;11.38;;
25922;SDS011;13725;51.170;4.442;2023-05-07T01:18:02;14.85;;;11.23;;
25922;SDS011;13725;51.170;4.442;2023-05-07T01:20:33;19.02;;;12.00;;
25922;SDS011;13725;51.170;4.442;2023-05-07T01:22:59;14.80;;;10.90;;
25922;SDS011;13725;51.170;4.442;2023-05-07T01:25:26;19.40;;;11.75;;
25922;SDS011;13725;51.170;4.442;2023-05-07T01:27:56;16.20;;;11.80;;
25922;SDS011;13725;51.170;4.442;2023-05-07T01:30:26;16.08;;;11.30;;
25922;SDS011;13725;51.170;4.442;2023-05-07T01:32:56;18.33;;;10.73;;
25922;SDS011;13725;51.170;4.442;2023-05-07T01:35:24;18.60;;;11.80;;
25922;SDS011;13725;51.170;4.442;2023-05-07T01:37:55;15.77;;;10.88;;
25922;SDS011;13725;51.170;4.442;2023-05-07T01:40:22;14.52;;;11.57;;
25922;SDS011;13725;51.170;4.442;2023-05-07T01:42:49;16.55;;;11.90;;
25922;SDS011;13725;51.170;4.442;2023-05-07T01:45:15;13.15;;;11.23;;
25922;SDS011;13725;51.170;4.442;2023-05-07T01:47:41;14.65;;;11.20;;
25922;SDS011;13725;51.170;4.442;2023-05-07T01:50:08;15.90;;;11.48;;
25922;SDS011;13725;51.170;4.442;2023-05-07T01:52:36;19.98;;;11.65;;
25922;SDS011;13725;51.170;4.442;2023-05-07T01:55:05;20.48;;;12.20;;
25922;SDS011;13725;51.170;4.442;2023-05-07T01:57:32;15.25;;;11.23;;
25922;SDS011;13725;51.170;4.442;2023-05-07T01:59:57;18.35;;;12.05;;
25922;SDS011;13725;51.170;4.442;2023-05-07T02:02:23;15.35;;;10.73;;
25922;SDS011;13725;51.170;4.442;2023-05-07T02:04:50;16.63;;;12.18;;
25922;SDS011;13725;51.170;4.442;2023-05-07T02:07:17;16.48;;;11.65;;
25922;SDS011;13725;51.170;4.442;2023-05-07T02:09:43;19.02;;;12.23;;
25922;SDS011;13725;51.170;4.442;2023-05-07T02:12:10;16.88;;;11.88;;
25922;SDS011;13725;51.170;4.442;2023-05-07T02:14:35;19.15;;;12.05;;
25922;SDS011;13725;51.170;4.442;2023-05-07T02:17:01;18.95;;;11.95;;
25922;SDS011;13725;51.170;4.442;2023-05-07T02:19:27;20.15;;;12.70;;
25922;SDS011;13725;51.170;4.442;2023-05-07T02:21:53;19.45;;;12.45;;
25922;SDS011;13725;51.170;4.442;2023-05-07T02:24:19;17.95;;;12.10;;
25922;SDS011;13725;51.170;4.442;2023-05-07T02:26:45;19.33;;;13.60;;
25922;SDS011;13725;51.170;4.442;2023-05-07T02:29:10;16.73;;;12.35;;
25922;SDS011;13725;51.170;4.442;2023-05-07T02:31:37;18.63;;;12.68;;
25922;SDS011;13725;51.170;4.442;2023-05-07T02:34:03;16.77;;;12.85;;
25922;SDS011;13725;51.170;4.442;2023-05-07T02:36:29;22.13;;;12.77;;
25922;SDS011;13725;51.170;4.442;2023-05-07T02:39:08;18.00;;;13.50;;
25922;SDS011;13725;51.170;4.442;2023-05-07T02:41:34;16.42;;;12.90;;
25922;SDS011;13725;51.170;4.442;2023-05-07T02:44:00;18.60;;;13.48;;
25922;SDS011;13725;51.170;4.442;2023-05-07T02:46:26;17.33;;;12.77;;
25922;SDS011;13725;51.170;4.442;2023-05-07T02:48:58;23.50;;;13.80;;
25922;SDS011;13725;51.170;4.442;2023-05-07T02:51:25;17.75;;;12.73;;
25922;SDS011;13725;51.170;4.442;2023-05-07T02:53:51;16.67;;;12.32;;
25922;SDS011;13725;51.170;4.442;2023-05-07T02:56:17;15.75;;;11.80;;
25922;SDS011;13725;51.170;4.442;2023-05-07T02:58:43;19.52;;;11.95;;
25922;SDS011;13725;51.170;4.442;2023-05-07T03:01:09;19.67;;;12.00;;
25922;SDS011;13725;51.170;4.442;2023-05-07T03:03:45;18.25;;;12.50;;
25922;SDS011;13725;51.170;4.442;2023-05-07T03:06:12;16.83;;;11.63;;
25922;SDS011;13725;51.170;4.442;2023-05-07T03:08:37;15.75;;;11.30;;
25922;SDS011;13725;51.170;4.442;2023-05-07T03:11:03;17.73;;;11.85;;
25922;SDS011;13725;51.170;4.442;2023-05-07T03:13:29;17.40;;;12.00;;
25922;SDS011;13725;51.170;4.442;2023-05-07T03:15:55;16.08;;;12.15;;
25922;SDS011;13725;51.170;4.442;2023-05-07T03:18:22;18.77;;;11.45;;
25922;SDS011;13725;51.170;4.442;2023-05-07T03:20:48;17.33;;;11.32;;
25922;SDS011;13725;51.170;4.442;2023-05-07T03:23:15;13.63;;;10.77;;
25922;SDS011;13725;51.170;4.442;2023-05-07T03:25:41;18.60;;;11.70;;
25922;SDS011;13725;51.170;4.442;2023-05-07T03:28:07;16.80;;;11.90;;
25922;SDS011;13725;51.170;4.442;2023-05-07T03:30:39;16.55;;;12.18;;
25922;SDS011;13725;51.170;4.442;2023-05-07T03:33:05;19.45;;;13.32;;
25922;SDS011;13725;51.170;4.442;2023-05-07T03:35:31;17.55;;;11.65;;
25922;SDS011;13725;51.170;4.442;2023-05-07T03:37:57;15.32;;;11.13;;
25922;SDS011;13725;51.170;4.442;2023-05-07T03:40:25;16.98;;;11.57;;
25922;SDS011;13725;51.170;4.442;2023-05-07T03:42:53;16.80;;;11.50;;
25922;SDS011;13725;51.170;4.442;2023-05-07T03:45:22;14.65;;;11.82;;
25922;SDS011;13725;51.170;4.442;2023-05-07T03:47:56;15.65;;;11.20;;
25922;SDS011;13725;51.170;4.442;2023-05-07T03:50:22;17.95;;;11.95;;
25922;SDS011;13725;51.170;4.442;2023-05-07T03:52:48;19.33;;;12.20;;
25922;SDS011;13725;51.170;4.442;2023-05-07T03:55:17;18.92;;;12.55;;
25922;SDS011;13725;51.170;4.442;2023-05-07T03:57:48;15.05;;;11.48;;
25922;SDS011;13725;51.170;4.442;2023-05-07T04:00:14;16.30;;;11.98;;
25922;SDS011;13725;51.170;4.442;2023-05-07T04:02:45;18.35;;;11.73;;
25922;SDS011;13725;51.170;4.442;2023-05-07T04:05:12;17.02;;;11.75;;
25922;SDS011;13725;51.170;4.442;2023-05-07T04:07:41;16.40;;;12.27;;
25922;SDS011;13725;51.170;4.442;2023-05-07T04:10:08;19.50;;;12.73;;
25922;SDS011;13725;51.170;4.442;2023-05-07T04:12:37;20.17;;;11.88;;
25922;SDS011;13725;51.170;4.442;2023-05-07T04:15:04;13.90;;;11.55;;
25922;SDS011;13725;51.170;4.442;2023-05-07T04:17:30;16.40;;;12.25;;
25922;SDS011;13725;51.170;4.442;2023-05-07T04:19:56;18.92;;;11.93;;
25922;SDS011;13725;51.170;4.442;2023-05-07T04:22:22;16.02;;;12.48;;
25922;SDS011;13725;51.170;4.442;2023-05-07T04:24:48;16.75;;;12.05;;
25922;SDS011;13725;51.170;4.442;2023-05-07T04:27:14;19.73;;;12.55;;
25922;SDS011;13725;51.170;4.442;2023-05-07T04:29:40;18.52;;;12.57;;
25922;SDS011;13725;51.170;4.442;2023-05-07T04:32:09;18.30;;;12.30;;
25922;SDS011;13725;51.170;4.442;2023-05-07T04:34:38;18.52;;;12.32;;
25922;SDS011;13725;51.170;4.442;2023-05-07T04:37:04;17.85;;;12.25;;
25922;SDS011;13725;51.170;4.442;2023-05-07T04:39:30;15.45;;;12.73;;
25922;SDS011;13725;51.170;4.442;2023-05-07T04:41:57;14.57;;;12.23;;
25922;SDS011;13725;51.170;4.442;2023-05-07T04:44:24;15.70;;;12.10;;
25922;SDS011;13725;51.170;4.442;2023-05-07T04:46:50;19.58;;;13.13;;
25922;SDS011;13725;51.170;4.442;2023-05-07T04:49:16;16.73;;;11.38;;
25922;SDS011;13725;51.170;4.442;2023-05-07T04:51:42;17.67;;;12.02;;
25922;SDS011;13725;51.170;4.442;2023-05-07T04:54:09;16.42;;;12.27;;
25922;SDS011;13725;51.170;4.442;2023-05-07T04:56:35;14.70;;;12.23;;
25922;SDS011;13725;51.170;4.442;2023-05-07T04:59:02;14.70;;;11.95;;
25922;SDS011;13725;51.170;4.442;2023-05-07T05:01:28;17.42;;;12.02;;
25922;SDS011;13725;51.170;4.442;2023-05-07T05:03:54;16.67;;;12.43;;
25922;SDS011;13725;51.170;4.442;2023-05-07T05:06:20;14.82;;;11.68;;
25922;SDS011;13725;51.170;4.442;2023-05-07T05:08:46;15.50;;;12.07;;
25922;SDS011;13725;51.170;4.442;2023-05-07T05:11:12;17.02;;;11.52;;
25922;SDS011;13725;51.170;4.442;2023-05-07T05:13:38;14.30;;;12.18;;
25922;SDS011;13725;51.170;4.442;2023-05-07T05:16:10;17.40;;;12.23;;
25922;SDS011;13725;51.170;4.442;2023-05-07T05:18:36;16.65;;;11.50;;
25922;SDS011;13725;51.170;4.442;2023-05-07T05:21:03;15.30;;;12.05;;
25922;SDS011;13725;51.170;4.442;2023-05-07T05:23:30;15.18;;;11.15;;
25922;SDS011;13725;51.170;4.442;2023-05-07T05:25:56;18.17;;;12.55;;
25922;SDS011;13725;51.170;4.442;2023-05-07T05:28:25;19.15;;;11.90;;
25922;SDS011;13725;51.170;4.442;2023-05-07T05:30:51;17.42;;;10.90;;
25922;SDS011;13725;51.170;4.442;2023-05-07T05:33:17;14.32;;;11.10;;
25922;SDS011;13725;51.170;4.442;2023-05-07T05:35:43;14.20;;;11.52;;
25922;SDS011;13725;51.170;4.442;2023-05-07T05:38:11;16.42;;;11.10;;
25922;SDS011;13725;51.170;4.442;2023-05-07T05:40:38;14.88;;;11.02;;
25922;SDS011;13725;51.170;4.442;2023-05-07T05:43:03;15.68;;;11.02;;
25922;SDS011;13725;51.170;4.442;2023-05-07T05:45:30;18.58;;;11.40;;
25922;SDS011;13725;51.170;4.442;2023-05-07T05:47:56;13.93;;;11.00;;
25922;SDS011;13725;51.170;4.442;2023-05-07T05:50:22;15.75;;;10.85;;
25922;SDS011;13725;51.170;4.442;2023-05-07T05:52:48;22.52;;;11.82;;
25922;SDS011;13725;51.170;4.442;2023-05-07T05:55:16;13.82;;;10.75;;
25922;SDS011;13725;51.170;4.442;2023-05-07T05:57:42;15.32;;;10.52;;
25922;SDS011;13725;51.170;4.442;2023-05-07T06:00:08;16.17;;;11.63;;
25922;SDS011;13725;51.170;4.442;2023-05-07T06:02:43;16.77;;;10.65;;
25922;SDS011;13725;51.170;4.442;2023-05-07T06:05:11;16.00;;;11.20;;
25922;SDS011;13725;51.170;4.442;2023-05-07T06:07:37;13.98;;;11.30;;
25922;SDS011;13725;51.170;4.442;2023-05-07T06:10:03;14.77;;;11.45;;
25922;SDS011;13725;51.170;4.442;2023-05-07T06:12:31;18.77;;;11.32;;
25922;SDS011;13725;51.170;4.442;2023-05-07T06:14:57;16.75;;;10.82;;
25922;SDS011;13725;51.170;4.442;2023-05-07T06:17:23;15.30;;;11.05;;
25922;SDS011;13725;51.170;4.442;2023-05-07T06:19:49;16.05;;;10.75;;
25922;SDS011;13725;51.170;4.442;2023-05-07T06:22:17;15.88;;;10.82;;
25922;SDS011;13725;51.170;4.442;2023-05-07T06:24:43;14.02;;;11.15;;
25922;SDS011;13725;51.170;4.442;2023-05-07T06:27:09;16.30;;;11.00;;
25922;SDS011;13725;51.170;4.442;2023-05-07T06:29:36;12.82;;;10.45;;
25922;SDS011;13725;51.170;4.442;2023-05-07T06:32:11;16.27;;;11.63;;
25922;SDS011;13725;51.170;4.442;2023-05-07T06:34:39;13.95;;;10.68;;
25922;SDS011;13725;51.170;4.442;2023-05-07T06:37:06;17.80;;;11.52;;
25922;SDS011;13725;51.170;4.442;2023-05-07T06:39:51;20.40;;;11.23;;
25922;SDS011;13725;51.170;4.442;2023-05-07T06:42:17;14.95;;;11.50;;
25922;SDS011;13725;51.170;4.442;2023-05-07T06:44:45;13.57;;;10.60;;
25922;SDS011;13725;51.170;4.442;2023-05-07T06:47:14;14.65;;;10.88;;
25922;SDS011;13725;51.170;4.442;2023-05-07T06:49:39;12.07;;;9.93;;
25922;SDS011;13725;51.170;4.442;2023-05-07T06:52:05;13.40;;;11.52;;
25922;SDS011;13725;51.170;4.442;2023-05-07T06:54:31;13.18;;;10.57;;
25922;SDS011;13725;51.170;4.442;2023-05-07T06:56:57;12.10;;;10.45;;
25922;SDS011;13725;51.170;4.442;2023-05-07T06:59:26;13.68;;;10.57;;
25922;SDS011;13725;51.170;4.442;2023-05-07T07:01:52;14.02;;;10.85;;
25922;SDS011;13725;51.170;4.442;2023-05-07T07:04:18;16.02;;;10.52;;
25922;SDS011;13725;51.170;4.442;2023-05-07T07:06:51;17.77;;;11.23;;
25922;SDS011;13725;51.170;4.442;2023-05-07T07:09:18;14.45;;;11.65;;
25922;SDS011;13725;51.170;4.442;2023-05-07T07:11:44;16.23;;;11.23;;
25922;SDS011;13725;51.170;4.442;2023-05-07T07:14:10;17.08;;;11.70;;
25922;SDS011;13725;51.170;4.442;2023-05-07T07:19:09;16.48;;;10.88;;
25922;SDS011;13725;51.170;4.442;2023-05-07T07:21:35;16.45;;;10.80;;
25922;SDS011;13725;51.170;4.442;2023-05-07T07:24:01;13.52;;;10.98;;
25922;SDS011;13725;51.170;4.442;2023-05-07T07:26:27;15.55;;;10.65;;
25922;SDS011;13725;51.170;4.442;2023-05-07T07:28:54;16.05;;;11.05;;
25922;SDS011;13725;51.170;4.442;2023-05-07T07:31:21;15.32;;;10.80;;
25922;SDS011;13725;51.170;4.442;2023-05-07T07:33:49;12.50;;;9.50;;
25922;SDS011;13725;51.170;4.442;2023-05-07T07:36:15;12.85;;;10.40;;
25922;SDS011;13725;51.170;4.442;2023-05-07T07:38:41;14.93;;;10.68;;
25922;SDS011;13725;51.170;4.442;2023-05-07T07:41:09;15.00;;;10.48;;
25922;SDS011;13725;51.170;4.442;2023-05-07T07:43:36;16.27;;;10.43;;
25922;SDS011;13725;51.170;4.442;2023-05-07T07:46:02;15.00;;;9.80;;
25922;SDS011;13725;51.170;4.442;2023-05-07T07:48:28;13.95;;;10.18;;
25922;SDS011;13725;51.170;4.442;2023-05-07T07:50:54;12.63;;;8.50;;
25922;SDS011;13725;51.170;4.442;2023-05-07T07:53:21;11.07;;;8.13;;
25922;SDS011;13725;51.170;4.442;2023-05-07T07:55:47;17.77;;;8.15;;
25922;SDS011;13725;51.170;4.442;2023-05-07T07:58:16;10.77;;;7.65;;
25922;SDS011;13725;51.170;4.442;2023-05-07T08:00:42;13.15;;;8.02;;
25922;SDS011;13725;51.170;4.442;2023-05-07T08:03:11;12.80;;;7.53;;
25922;SDS011;13725;51.170;4.442;2023-05-07T08:05:40;10.27;;;7.67;;
25922;SDS011;13725;51.170;4.442;2023-05-07T08:08:06;13.20;;;7.32;;
25922;SDS011;13725;51.170;4.442;2023-05-07T08:10:34;11.95;;;7.22;;
25922;SDS011;13725;51.170;4.442;2023-05-07T08:13:07;9.68;;;7.22;;
25922;SDS011;13725;51.170;4.442;2023-05-07T08:15:35;12.43;;;6.50;;
25922;SDS011;13725;51.170;4.442;2023-05-07T08:18:02;11.00;;;6.75;;
25922;SDS011;13725;51.170;4.442;2023-05-07T08:20:28;12.23;;;6.30;;
25922;SDS011;13725;51.170;4.442;2023-05-07T08:22:55;10.02;;;5.75;;
25922;SDS011;13725;51.170;4.442;2023-05-07T08:25:21;11.55;;;6.60;;
25922;SDS011;13725;51.170;4.442;2023-05-07T08:27:47;16.88;;;7.50;;
25922;SDS011;13725;51.170;4.442;2023-05-07T08:30:14;13.27;;;7.43;;
25922;SDS011;13725;51.170;4.442;2023-05-07T08:32:40;14.02;;;7.07;;
25922;SDS011;13725;51.170;4.442;2023-05-07T08:35:06;9.25;;;6.10;;
25922;SDS011;13725;51.170;4.442;2023-05-07T08:37:33;11.23;;;6.72;;
25922;SDS011;13725;51.170;4.442;2023-05-07T08:39:59;11.63;;;6.90;;
25922;SDS011;13725;51.170;4.442;2023-05-07T08:42:29;11.73;;;6.82;;
25922;SDS011;13725;51.170;4.442;2023-05-07T08:44:58;13.82;;;6.95;;
25922;SDS011;13725;51.170;4.442;2023-05-07T08:47:26;11.38;;;6.80;;
25922;SDS011;13725;51.170;4.442;2023-05-07T08:50:00;14.00;;;6.72;;
25922;SDS011;13725;51.170;4.442;2023-05-07T08:52:27;18.25;;;6.78;;
25922;SDS011;13725;51.170;4.442;2023-05-07T08:54:53;12.80;;;6.35;;
25922;SDS011;13725;51.170;4.442;2023-05-07T08:57:20;13.98;;;6.63;;
25922;SDS011;13725;51.170;4.442;2023-05-07T08:59:49;12.40;;;6.75;;
25922;SDS011;13725;51.170;4.442;2023-05-07T09:02:15;9.77;;;6.05;;
25922;SDS011;13725;51.170;4.442;2023-05-07T09:04:41;11.05;;;5.55;;
25922;SDS011;13725;51.170;4.442;2023-05-07T09:07:07;9.52;;;5.57;;
25922;SDS011;13725;51.170;4.442;2023-05-07T09:09:38;13.07;;;5.75;;
25922;SDS011;13725;51.170;4.442;2023-05-07T09:12:05;8.05;;;5.88;;
25922;SDS011;13725;51.170;4.442;2023-05-07T09:14:33;9.82;;;5.70;;
25922;SDS011;13725;51.170;4.442;2023-05-07T09:17:00;12.13;;;5.88;;
25922;SDS011;13725;51.170;4.442;2023-05-07T09:19:26;9.82;;;5.63;;
25922;SDS011;13725;51.170;4.442;2023-05-07T09:22:01;11.70;;;5.35;;
25922;SDS011;13725;51.170;4.442;2023-05-07T09:24:33;8.60;;;5.50;;
25922;SDS011;13725;51.170;4.442;2023-05-07T09:27:03;10.60;;;5.50;;
25922;SDS011;13725;51.170;4.442;2023-05-07T09:29:30;10.30;;;5.72;;
25922;SDS011;13725;51.170;4.442;2023-05-07T09:32:04;13.25;;;6.43;;
25922;SDS011;13725;51.170;4.442;2023-05-07T09:34:31;10.07;;;6.15;;
25922;SDS011;13725;51.170;4.442;2023-05-07T09:37:04;15.65;;;5.90;;
25922;SDS011;13725;51.170;4.442;2023-05-07T09:39:44;13.35;;;6.10;;
25922;SDS011;13725;51.170;4.442;2023-05-07T09:42:13;11.00;;;5.70;;
25922;SDS011;13725;51.170;4.442;2023-05-07T09:44:41;13.38;;;5.28;;
25922;SDS011;13725;51.170;4.442;2023-05-07T09:47:12;12.13;;;5.75;;
25922;SDS011;13725;51.170;4.442;2023-05-07T09:49:46;15.57;;;6.17;;
25922;SDS011;13725;51.170;4.442;2023-05-07T09:52:14;14.68;;;6.80;;
25922;SDS011;13725;51.170;4.442;2023-05-07T09:54:47;13.33;;;5.80;;
25922;SDS011;13725;51.170;4.442;2023-05-07T09:57:17;12.23;;;5.70;;
25922;SDS011;13725;51.170;4.442;2023-05-07T09:59:49;10.05;;;6.25;;
25922;SDS011;13725;51.170;4.442;2023-05-07T10:02:18;15.18;;;6.35;;
25922;SDS011;13725;51.170;4.442;2023-05-07T10:04:49;12.85;;;6.32;;
25922;SDS011;13725;51.170;4.442;2023-05-07T10:07:19;13.23;;;5.60;;
25922;SDS011;13725;51.170;4.442;2023-05-07T10:09:49;12.82;;;6.45;;
25922;SDS011;13725;51.170;4.442;2023-05-07T10:12:23;10.95;;;5.30;;
25922;SDS011;13725;51.170;4.442;2023-05-07T10:14:49;12.80;;;5.45;;
25922;SDS011;13725;51.170;4.442;2023-05-07T10:17:17;13.73;;;6.07;;
25922;SDS011;13725;51.170;4.442;2023-05-07T10:19:44;12.25;;;6.32;;
25922;SDS011;13725;51.170;4.442;2023-05-07T10:22:11;12.15;;;6.05;;
25922;SDS011;13725;51.170;4.442;2023-05-07T10:24:44;10.57;;;5.47;;
25922;SDS011;13725;51.170;4.442;2023-05-07T10:27:15;11.03;;;5.60;;
25922;SDS011;13725;51.170;4.442;2023-05-07T10:32:55;6.40;;;4.70;;
25922;SDS011;13725;51.170;4.442;2023-05-07T10:35:30;9.05;;;4.65;;
25922;SDS011;13725;51.170;4.442;2023-05-07T10:38:04;15.27;;;5.47;;
25922;SDS011;13725;51.170;4.442;2023-05-07T10:40:33;9.65;;;4.70;;
25922;SDS011;13725;51.170;4.442;2023-05-07T10:43:01;9.10;;;4.88;;
25922;SDS011;13725;51.170;4.442;2023-05-07T10:45:35;9.15;;;5.22;;
25922;SDS011;13725;51.170;4.442;2023-05-07T10:48:10;12.73;;;6.05;;
25922;SDS011;13725;51.170;4.442;2023-05-07T10:50:37;11.93;;;5.47;;
25922;SDS011;13725;51.170;4.442;2023-05-07T10:55:50;12.15;;;5.60;;
25922;SDS011;13725;51.170;4.442;2023-05-07T11:00:59;7.03;;;5.75;;
25922;SDS011;13725;51.170;4.442;2023-05-07T11:03:32;10.48;;;4.80;;
25922;SDS011;13725;51.170;4.442;2023-05-07T11:06:13;7.25;;;5.10;;
25922;SDS011;13725;51.170;4.442;2023-05-07T11:11:46;7.72;;;3.25;;
25922;SDS011;13725;51.170;4.442;2023-05-07T11:17:14;7.10;;;3.50;;
25922;SDS011;13725;51.170;4.442;2023-05-07T11:25:08;10.27;;;3.30;;
25922;SDS011;13725;51.170;4.442;2023-05-07T11:27:35;9.00;;;3.53;;
25922;SDS011;13725;51.170;4.442;2023-05-07T11:30:01;11.70;;;3.60;;
25922;SDS011;13725;51.170;4.442;2023-05-07T11:32:28;11.20;;;4.05;;
25922;SDS011;13725;51.170;4.442;2023-05-07T11:34:56;9.55;;;3.90;;
25922;SDS011;13725;51.170;4.442;2023-05-07T11:37:24;6.82;;;3.60;;
25922;SDS011;13725;51.170;4.442;2023-05-07T11:40:03;6.10;;;3.08;;
25922;SDS011;13725;51.170;4.442;2023-05-07T11:45:02;7.43;;;3.50;;
25922;SDS011;13725;51.170;4.442;2023-05-07T11:47:32;6.32;;;3.42;;
25922;SDS011;13725;51.170;4.442;2023-05-07T11:50:02;11.23;;;3.53;;
25922;SDS011;13725;51.170;4.442;2023-05-07T11:52:30;8.52;;;3.50;;
25922;SDS011;13725;51.170;4.442;2023-05-07T11:54:56;6.10;;;3.13;;
25922;SDS011;13725;51.170;4.442;2023-05-07T11:57:23;7.78;;;3.08;;
25922;SDS011;13725;51.170;4.442;2023-05-07T11:59:56;6.57;;;3.30;;
25922;SDS011;13725;51.170;4.442;2023-05-07T12:02:22;7.00;;;3.63;;
25922;SDS011;13725;51.170;4.442;2023-05-07T12:04:50;9.63;;;3.65;;
25922;SDS011;13725;51.170;4.442;2023-05-07T12:07:16;7.47;;;3.78;;
25922;SDS011;13725;51.170;4.442;2023-05-07T12:09:43;6.00;;;3.63;;
25922;SDS011;13725;51.170;4.442;2023-05-07T12:12:10;9.00;;;3.70;;
25922;SDS011;13725;51.170;4.442;2023-05-07T12:14:42;7.22;;;4.30;;
25922;SDS011;13725;51.170;4.442;2023-05-07T12:19:36;7.95;;;4.05;;
25922;SDS011;13725;51.170;4.442;2023-05-07T12:22:02;6.90;;;3.58;;
25922;SDS011;13725;51.170;4.442;2023-05-07T12:24:28;9.73;;;3.78;;
25922;SDS011;13725;51.170;4.442;2023-05-07T12:27:06;8.23;;;3.72;;
25922;SDS011;13725;51.170;4.442;2023-05-07T12:29:32;9.30;;;3.55;;
25922;SDS011;13725;51.170;4.442;2023-05-07T12:31:57;10.43;;;3.30;;
25922;SDS011;13725;51.170;4.442;2023-05-07T12:34:24;7.55;;;3.85;;
25922;SDS011;13725;51.170;4.442;2023-05-07T12:36:50;8.32;;;3.65;;
25922;SDS011;13725;51.170;4.442;2023-05-07T12:39:16;6.28;;;3.65;;
25922;SDS011;13725;51.170;4.442;2023-05-07T12:41:57;5.93;;;3.00;;
25922;SDS011;13725;51.170;4.442;2023-05-07T12:44:24;10.50;;;4.03;;
25922;SDS011;13725;51.170;4.442;2023-05-07T12:46:54;7.15;;;3.30;;
25922;SDS011;13725;51.170;4.442;2023-05-07T12:49:19;8.18;;;3.50;;
25922;SDS011;13725;51.170;4.442;2023-05-07T12:51:48;7.28;;;3.58;;
25922;SDS011;13725;51.170;4.442;2023-05-07T12:57:08;6.10;;;2.80;;
25922;SDS011;13725;51.170;4.442;2023-05-07T12:59:38;6.97;;;2.78;;
25922;SDS011;13725;51.170;4.442;2023-05-07T13:02:05;7.32;;;2.80;;
25922;SDS011;13725;51.170;4.442;2023-05-07T13:04:32;6.38;;;3.00;;
25922;SDS011;13725;51.170;4.442;2023-05-07T13:06:59;6.45;;;3.10;;
25922;SDS011;13725;51.170;4.442;2023-05-07T13:09:25;6.28;;;3.30;;
25922;SDS011;13725;51.170;4.442;2023-05-07T13:11:51;7.65;;;2.90;;
25922;SDS011;13725;51.170;4.442;2023-05-07T13:14:16;6.20;;;2.90;;
25922;SDS011;13725;51.170;4.442;2023-05-07T13:16:42;6.65;;;2.90;;
25922;SDS011;13725;51.170;4.442;2023-05-07T13:19:08;8.35;;;2.80;;
25922;SDS011;13725;51.170;4.442;2023-05-07T13:21:34;5.65;;;3.28;;
25922;SDS011;13725;51.170;4.442;2023-05-07T13:24:00;8.60;;;3.15;;
25922;SDS011;13725;51.170;4.442;2023-05-07T13:26:25;4.65;;;2.40;;
25922;SDS011;13725;51.170;4.442;2023-05-07T13:28:52;7.13;;;3.03;;
25922;SDS011;13725;51.170;4.442;2023-05-07T13:31:18;5.22;;;2.08;;
25922;SDS011;13725;51.170;4.442;2023-05-07T13:33:46;9.00;;;2.47;;
25922;SDS011;13725;51.170;4.442;2023-05-07T13:36:12;3.20;;;1.65;;
25922;SDS011;13725;51.170;4.442;2023-05-07T13:38:38;4.97;;;2.20;;
25922;SDS011;13725;51.170;4.442;2023-05-07T13:41:04;2.78;;;1.45;;
25922;SDS011;13725;51.170;4.442;2023-05-07T13:43:30;2.80;;;1.98;;
25922;SDS011;13725;51.170;4.442;2023-05-07T13:45:57;3.83;;;1.85;;
25922;SDS011;13725;51.170;4.442;2023-05-07T13:48:23;4.20;;;1.40;;
25922;SDS011;13725;51.170;4.442;2023-05-07T13:50:48;4.35;;;1.67;;
25922;SDS011;13725;51.170;4.442;2023-05-07T13:53:14;5.07;;;2.35;;
25922;SDS011;13725;51.170;4.442;2023-05-07T13:55:43;4.28;;;1.80;;
25922;SDS011;13725;51.170;4.442;2023-05-07T13:58:09;5.32;;;2.72;;
25922;SDS011;13725;51.170;4.442;2023-05-07T14:00:35;3.97;;;1.85;;
25922;SDS011;13725;51.170;4.442;2023-05-07T14:03:01;6.70;;;2.25;;
25922;SDS011;13725;51.170;4.442;2023-05-07T14:05:27;4.72;;;1.90;;
25922;SDS011;13725;51.170;4.442;2023-05-07T14:07:53;8.20;;;2.17;;
25922;SDS011;13725;51.170;4.442;2023-05-07T14:10:20;5.90;;;2.30;;
25922;SDS011;13725;51.170;4.442;2023-05-07T14:12:46;5.93;;;2.00;;
25922;SDS011;13725;51.170;4.442;2023-05-07T14:15:13;3.55;;;2.03;;
25922;SDS011;13725;51.170;4.442;2023-05-07T14:17:39;6.38;;;2.05;;
25922;SDS011;13725;51.170;4.442;2023-05-07T14:20:05;5.43;;;1.92;;
25922;SDS011;13725;51.170;4.442;2023-05-07T14:22:32;5.57;;;1.95;;
25922;SDS011;13725;51.170;4.442;2023-05-07T14:24:57;5.22;;;2.38;;
25922;SDS011;13725;51.170;4.442;2023-05-07T14:27:23;5.63;;;2.33;;
25922;SDS011;13725;51.170;4.442;2023-05-07T14:29:49;4.63;;;2.50;;
25922;SDS011;13725;51.170;4.442;2023-05-07T14:32:18;5.20;;;2.20;;
25922;SDS011;13725;51.170;4.442;2023-05-07T14:34:45;4.18;;;1.90;;
25922;SDS011;13725;51.170;4.442;2023-05-07T14:37:11;6.15;;;2.70;;
25922;SDS011;13725;51.170;4.442;2023-05-07T14:39:37;4.97;;;1.88;;
25922;SDS011;13725;51.170;4.442;2023-05-07T14:42:03;5.47;;;2.40;;
25922;SDS011;13725;51.170;4.442;2023-05-07T14:44:29;7.68;;;2.03;;
25922;SDS011;13725;51.170;4.442;2023-05-07T14:46:56;5.72;;;2.00;;
25922;SDS011;13725;51.170;4.442;2023-05-07T14:49:22;4.65;;;2.20;;
25922;SDS011;13725;51.170;4.442;2023-05-07T14:51:48;3.35;;;2.05;;
25922;SDS011;13725;51.170;4.442;2023-05-07T14:54:15;3.97;;;1.75;;
25922;SDS011;13725;51.170;4.442;2023-05-07T14:56:41;3.53;;;1.90;;
25922;SDS011;13725;51.170;4.442;2023-05-07T14:59:07;3.67;;;1.73;;
25922;SDS011;13725;51.170;4.442;2023-05-07T15:01:34;5.75;;;2.05;;